createdAt,value
2019-02-02T00:02:38.830Z,6.17
2019-02-02T00:05:32.908Z,7.15
2019-02-02T00:08:40.826Z,5.00
2019-02-02T00:11:46.940Z,9.73
2019-02-02T00:14:40.236Z,6.17
2019-02-02T00:17:33.549Z,8.13
2019-02-02T00:20:26.859Z,7.97
2019-02-02T00:23:20.430Z,5.67
2019-02-02T00:26:13.484Z,7.25
2019-02-02T00:32:15.725Z,5.45
2019-02-02T00:35:10.826Z,6.00
2019-02-02T00:38:04.171Z,7.28
2019-02-02T00:40:57.196Z,5.92
2019-02-02T00:43:51.021Z,6.03
2019-02-02T00:46:52.010Z,7.78
2019-02-02T00:49:44.811Z,6.95
2019-02-02T00:52:38.119Z,8.35
2019-02-02T00:55:31.433Z,6.83
2019-02-02T00:58:24.744Z,6.62
2019-02-02T01:01:18.064Z,6.10
2019-02-02T01:04:11.625Z,6.15
2019-02-02T01:07:12.104Z,6.17
2019-02-02T01:10:01.420Z,7.62
2019-02-02T01:12:54.637Z,5.50
2019-02-02T01:15:47.688Z,7.60
2019-02-02T01:18:40.487Z,6.90
2019-02-02T01:21:34.316Z,6.90
2019-02-02T01:24:36.328Z,6.50
2019-02-02T01:27:25.544Z,6.47
2019-02-02T01:30:26.026Z,6.12
2019-02-02T01:33:20.117Z,5.47
2019-02-02T01:36:13.160Z,5.55
2019-02-02T01:39:02.893Z,6.80
2019-02-02T01:41:55.692Z,5.85
2019-02-02T01:44:49.005Z,6.28
2019-02-02T01:47:41.801Z,5.37
2019-02-02T01:50:36.136Z,5.45
2019-02-02T01:53:30.475Z,6.83
2019-02-02T01:56:19.690Z,5.05
2019-02-02T01:59:13.512Z,4.85
2019-02-02T02:02:07.593Z,4.85
2019-02-02T02:05:00.402Z,4.85
2019-02-02T02:07:53.458Z,5.17
2019-02-02T02:10:46.762Z,5.45
2019-02-02T02:13:39.558Z,5.17
2019-02-02T02:16:32.617Z,4.30
2019-02-02T02:19:21.834Z,7.00
2019-02-02T02:22:14.632Z,5.10
2019-02-02T02:25:07.433Z,4.72
2019-02-02T02:27:56.647Z,4.05
2019-02-02T02:30:49.961Z,5.00
2019-02-02T02:33:47.010Z,5.95
2019-02-02T02:36:42.982Z,4.42
2019-02-02T02:39:35.799Z,5.67
2019-02-02T02:42:37.292Z,5.20
2019-02-02T02:45:30.343Z,5.80
2019-02-02T02:48:19.560Z,5.62
2019-02-02T02:51:12.621Z,5.45
2019-02-02T02:54:10.696Z,5.85
2019-02-02T02:56:59.771Z,5.87
2019-02-02T02:59:52.556Z,6.00
2019-02-02T03:02:53.032Z,8.30
2019-02-02T03:05:46.344Z,5.37
2019-02-02T03:08:39.400Z,4.92
2019-02-02T03:11:32.205Z,4.80
2019-02-02T03:14:21.677Z,5.10
2019-02-02T03:17:14.475Z,4.75
2019-02-02T03:20:07.271Z,6.58
2019-02-02T03:23:00.334Z,5.85
2019-02-02T03:25:53.640Z,5.12
2019-02-02T03:28:53.265Z,5.75
2019-02-02T03:31:36.680Z,6.40
2019-02-02T03:34:29.481Z,6.05
2019-02-02T03:37:23.816Z,5.78
2019-02-02T03:40:16.871Z,5.55
2019-02-02T03:43:09.927Z,4.97
2019-02-02T03:45:58.916Z,5.75
2019-02-02T03:48:51.943Z,6.00
2019-02-02T03:51:44.743Z,5.70
2019-02-02T03:54:37.546Z,6.25
2019-02-02T03:57:30.600Z,5.85
2019-02-02T04:00:19.819Z,5.28
2019-02-02T04:03:12.615Z,5.65
2019-02-02T04:06:05.677Z,6.17
2019-02-02T04:08:58.736Z,6.30
2019-02-02T04:12:04.327Z,4.97
2019-02-02T04:14:51.818Z,4.20
2019-02-02T04:17:44.808Z,5.53
2019-02-02T04:20:39.914Z,5.80
2019-02-02T04:23:33.228Z,6.17
2019-02-02T04:26:22.184Z,4.72
2019-02-02T04:29:17.729Z,5.33
2019-02-02T04:32:09.327Z,5.05
2019-02-02T04:35:05.192Z,5.20
2019-02-02T04:37:58.505Z,5.17
2019-02-02T04:40:52.339Z,7.80
2019-02-02T04:43:46.665Z,5.25
2019-02-02T04:46:39.723Z,6.75
2019-02-02T04:49:40.714Z,8.60
2019-02-02T04:52:33.517Z,6.80
2019-02-02T04:55:22.477Z,7.78
2019-02-02T04:58:15.529Z,6.25
2019-02-02T05:01:08.583Z,6.70
2019-02-02T05:04:02.410Z,8.78
2019-02-02T05:06:55.207Z,7.95
2019-02-02T05:09:44.366Z,8.48
2019-02-02T05:12:37.224Z,8.03
2019-02-02T05:15:31.310Z,8.23
2019-02-02T05:18:24.362Z,7.95
2019-02-02T05:21:21.255Z,7.37
2019-02-02T05:24:14.056Z,7.83
2019-02-02T05:27:07.113Z,8.98
2019-02-02T05:30:00.190Z,6.00
2019-02-02T05:33:01.160Z,7.60
2019-02-02T05:35:55.239Z,8.83
2019-02-02T05:39:00.840Z,7.85
2019-02-02T05:41:54.928Z,6.87
2019-02-02T05:44:47.722Z,5.87
2019-02-02T05:47:40.779Z,8.25
2019-02-02T05:50:34.603Z,8.83
2019-02-02T05:53:28.424Z,8.78
2019-02-02T05:56:21.223Z,8.93
2019-02-02T05:59:14.025Z,11.10
2019-02-02T06:02:06.827Z,7.78
2019-02-02T06:04:59.626Z,6.12
2019-02-02T06:07:52.681Z,11.30
2019-02-02T06:10:45.484Z,10.18
2019-02-02T06:13:38.291Z,7.87
2019-02-02T06:16:31.341Z,7.08
2019-02-02T06:19:24.135Z,8.58
2019-02-02T06:22:16.938Z,8.50
2019-02-02T06:25:09.739Z,8.68
2019-02-02T06:28:02.794Z,8.03
2019-02-02T06:30:51.876Z,8.45
2019-02-02T06:33:52.499Z,8.83
2019-02-02T06:36:45.546Z,7.10
2019-02-02T06:39:38.347Z,7.50
2019-02-02T06:42:27.562Z,6.12
2019-02-02T06:45:20.362Z,6.67
2019-02-02T06:48:09.322Z,6.15
2019-02-02T06:51:02.121Z,6.00
2019-02-02T06:53:54.922Z,5.30
2019-02-02T06:56:47.725Z,5.85
2019-02-02T06:59:40.523Z,5.87
2019-02-02T07:02:33.319Z,6.62
2019-02-02T07:05:26.378Z,7.00
2019-02-02T07:08:22.317Z,8.35
2019-02-02T07:11:09.007Z,6.42
2019-02-02T07:14:02.221Z,5.87
2019-02-02T07:16:57.324Z,6.83
2019-02-02T07:19:50.378Z,8.65
2019-02-02T07:22:43.183Z,7.40
2019-02-02T07:25:36.747Z,6.55
2019-02-02T07:28:29.547Z,6.97
2019-02-02T07:31:22.351Z,6.00
2019-02-02T07:34:11.564Z,6.53
2019-02-02T07:37:04.618Z,7.45
2019-02-02T07:39:57.675Z,6.67
2019-02-02T07:42:52.010Z,7.47
2019-02-02T07:45:59.402Z,7.85
2019-02-02T07:48:52.201Z,8.33
2019-02-02T07:51:45.001Z,6.47
2019-02-02T07:54:38.060Z,6.47
2019-02-02T07:57:31.379Z,6.45
2019-02-02T08:00:20.594Z,6.05
2019-02-02T08:03:13.645Z,6.22
2019-02-02T08:06:06.704Z,6.60
2019-02-02T08:09:06.992Z,7.45
2019-02-02T08:11:59.989Z,6.97
2019-02-02T08:14:49.446Z,9.15
2019-02-02T08:17:43.529Z,6.33
2019-02-02T08:20:36.845Z,10.28
2019-02-02T08:23:29.679Z,9.48
2019-02-02T08:26:22.962Z,9.25
2019-02-02T08:29:17.290Z,6.55
2019-02-02T08:32:10.349Z,9.65
2019-02-02T08:35:03.146Z,8.80
2019-02-02T08:37:57.227Z,7.05
2019-02-02T08:40:51.307Z,7.37
2019-02-02T08:43:44.616Z,6.65
2019-02-02T08:46:54.571Z,8.88
2019-02-02T08:49:49.678Z,10.65
2019-02-02T08:52:43.052Z,10.82
2019-02-02T08:55:36.321Z,9.73
2019-02-02T08:58:30.180Z,8.63
2019-02-02T09:01:23.184Z,8.25
2019-02-02T09:04:16.772Z,6.97
2019-02-02T09:07:09.801Z,8.28
2019-02-02T09:10:02.867Z,4.25
2019-02-02T09:12:58.160Z,7.67
2019-02-02T09:15:51.787Z,9.13
2019-02-02T09:18:44.585Z,9.00
2019-02-02T09:24:42.989Z,11.83
2019-02-02T09:27:36.556Z,5.22
2019-02-02T09:30:35.501Z,7.10
2019-02-02T09:33:29.323Z,11.97
2019-02-02T09:36:19.978Z,9.70
2019-02-02T09:39:13.641Z,7.62
2019-02-02T09:42:10.033Z,9.10
2019-02-02T09:45:03.337Z,10.78
2019-02-02T09:47:56.394Z,11.38
2019-02-02T09:50:49.448Z,5.80
2019-02-02T09:53:53.600Z,11.18
2019-02-02T09:56:45.131Z,9.05
2019-02-02T09:59:44.021Z,8.08
2019-02-02T10:02:41.384Z,9.98
2019-02-02T10:05:27.022Z,9.05
2019-02-02T10:08:21.355Z,8.25
2019-02-02T10:11:14.671Z,11.33
2019-02-02T10:14:08.748Z,6.42
2019-02-02T10:17:17.036Z,7.65
2019-02-02T10:20:15.413Z,10.53
2019-02-02T10:23:22.548Z,9.60
2019-02-02T10:26:21.754Z,5.22
2019-02-02T10:29:22.412Z,10.88
2019-02-02T10:32:19.078Z,7.03
2019-02-02T10:35:38.221Z,7.87
2019-02-02T10:38:41.103Z,5.83
2019-02-02T10:44:41.195Z,11.73
2019-02-02T10:47:34.518Z,9.30
2019-02-02T10:50:25.783Z,10.80
2019-02-02T10:53:18.826Z,11.48
2019-02-02T10:56:11.626Z,9.73
2019-02-02T10:59:07.600Z,9.85
2019-02-02T11:01:54.927Z,16.32
2019-02-02T11:04:48.076Z,8.63
2019-02-02T11:07:37.496Z,11.73
2019-02-02T11:10:32.841Z,11.93
2019-02-02T11:13:26.648Z,7.90
2019-02-02T11:16:19.509Z,8.10
2019-02-02T11:19:12.542Z,8.78
2019-02-02T11:22:09.136Z,9.85
2019-02-02T11:25:03.983Z,7.12
2019-02-02T11:27:57.041Z,6.55
2019-02-02T11:30:52.195Z,9.25
2019-02-02T11:33:46.218Z,11.18
2019-02-02T11:36:39.528Z,12.00
2019-02-02T11:39:35.399Z,7.25
2019-02-02T11:42:36.434Z,8.93
2019-02-02T11:45:30.732Z,9.60
2019-02-02T11:48:27.378Z,9.15
2019-02-02T11:51:22.218Z,8.63
2019-02-02T11:54:15.528Z,9.18
2019-02-02T11:57:09.104Z,11.63
2019-02-02T12:00:02.153Z,8.03
2019-02-02T12:02:56.494Z,6.83
2019-02-02T12:05:50.570Z,6.78
2019-02-02T12:08:43.885Z,8.28
2019-02-02T12:11:36.939Z,8.35
2019-02-02T12:14:29.995Z,6.28
2019-02-02T12:17:19.464Z,5.35
2019-02-02T12:20:12.521Z,7.87
2019-02-02T12:23:07.112Z,6.62
2019-02-02T12:25:59.918Z,5.25
2019-02-02T12:28:53.481Z,5.33
2019-02-02T12:31:42.700Z,5.35
2019-02-02T12:34:37.034Z,5.15
2019-02-02T12:37:30.089Z,5.45
2019-02-02T12:40:23.401Z,5.50
2019-02-02T12:43:16.984Z,4.62
2019-02-02T12:46:11.562Z,7.87
2019-02-02T12:49:04.874Z,5.87
2019-02-02T12:51:57.927Z,7.55
2019-02-02T12:54:50.731Z,7.15
2019-02-02T12:57:44.049Z,4.22
2019-02-02T13:00:37.867Z,3.70
2019-02-02T13:03:30.665Z,5.03
2019-02-02T13:06:20.905Z,5.20
2019-02-02T13:09:10.148Z,5.58
2019-02-02T13:11:59.314Z,4.72
2019-02-02T13:14:52.431Z,4.65
2019-02-02T13:17:45.191Z,5.87
2019-02-02T13:20:37.992Z,5.70
2019-02-02T13:23:31.049Z,4.80
2019-02-02T13:26:20.423Z,5.15
2019-02-02T13:29:13.832Z,5.87
2019-02-02T13:32:07.164Z,5.85
2019-02-02T13:35:00.455Z,3.90
2019-02-02T13:37:53.513Z,4.10
2019-02-02T13:40:46.571Z,5.30
2019-02-02T13:43:39.886Z,5.58
2019-02-02T13:46:32.959Z,5.15
2019-02-02T13:49:23.181Z,3.10
2019-02-02T13:52:23.666Z,2.45
2019-02-02T13:55:16.967Z,3.27
2019-02-02T13:58:23.598Z,1.42
2019-02-02T14:01:17.419Z,3.42
2019-02-02T14:04:10.984Z,4.35
2019-02-02T14:07:03.794Z,3.45
2019-02-02T14:09:56.851Z,2.47
2019-02-02T14:12:49.896Z,3.60
2019-02-02T14:15:43.466Z,5.97
2019-02-02T14:18:37.544Z,3.80
2019-02-02T14:21:38.535Z,3.27
2019-02-02T14:24:27.757Z,6.75
2019-02-02T14:27:20.809Z,3.83
2019-02-02T14:30:13.865Z,5.37
2019-02-02T14:33:14.121Z,5.08
2019-02-02T14:36:02.117Z,4.92
2019-02-02T14:38:55.098Z,2.47
2019-02-02T14:41:47.880Z,4.87
2019-02-02T14:44:43.240Z,4.87
2019-02-02T14:47:37.320Z,4.15
2019-02-02T14:50:32.283Z,5.00
2019-02-02T14:53:24.205Z,5.72
2019-02-02T14:56:17.259Z,4.08
2019-02-02T14:59:17.737Z,5.20
2019-02-02T15:02:47.153Z,5.72
2019-02-02T15:05:43.529Z,4.37
2019-02-02T15:08:48.360Z,4.75
2019-02-02T15:11:37.575Z,3.10
2019-02-02T15:14:33.449Z,3.50
2019-02-02T15:17:26.761Z,4.25
2019-02-02T15:20:22.112Z,5.12
2019-02-02T15:23:13.897Z,4.37
2019-02-02T15:26:07.211Z,4.17
2019-02-02T15:29:00.264Z,3.33
2019-02-02T15:32:01.002Z,1.40
2019-02-02T15:34:54.062Z,2.40
2019-02-02T15:37:47.407Z,4.97
2019-02-02T15:40:40.680Z,3.02
2019-02-02T15:43:33.743Z,3.50
2019-02-02T15:46:26.827Z,2.87
2019-02-02T15:49:21.136Z,4.62
2019-02-02T15:52:14.193Z,3.75
2019-02-02T15:55:10.055Z,6.47
2019-02-02T15:58:03.624Z,2.62
2019-02-02T16:00:57.703Z,4.05
2019-02-02T16:03:50.762Z,5.00
2019-02-02T16:06:43.822Z,4.37
2019-02-02T16:09:37.392Z,4.90
2019-02-02T16:12:30.440Z,2.90
2019-02-02T16:15:19.659Z,3.87
2019-02-02T16:18:12.462Z,4.33
2019-02-02T16:21:07.819Z,4.17
2019-02-02T16:24:00.625Z,3.40
2019-02-02T16:26:53.014Z,3.27
2019-02-02T16:29:46.471Z,1.55
2019-02-02T16:32:44.648Z,3.25
2019-02-02T16:35:37.705Z,4.28
2019-02-02T16:38:30.761Z,2.75
2019-02-02T16:41:31.238Z,2.17
2019-02-02T16:44:24.557Z,2.65
2019-02-02T16:47:17.353Z,4.87
2019-02-02T16:50:10.407Z,3.65
2019-02-02T16:57:04.619Z,5.75
2019-02-02T16:59:57.673Z,4.42
2019-02-02T17:02:52.010Z,3.77
2019-02-02T17:05:41.227Z,4.35
2019-02-02T17:08:34.280Z,5.25
2019-02-02T17:11:27.085Z,2.72
2019-02-02T17:14:17.855Z,4.53
2019-02-02T17:17:10.124Z,4.65
2019-02-02T17:20:03.431Z,4.47
2019-02-02T17:22:57.258Z,5.25
2019-02-02T17:25:51.089Z,4.37
2019-02-02T17:28:45.166Z,3.75
2019-02-02T17:31:38.727Z,4.78
2019-02-02T17:34:33.597Z,6.10
2019-02-02T17:37:27.406Z,5.65
2019-02-02T17:40:20.971Z,5.10
2019-02-02T17:43:14.551Z,4.25
2019-02-02T17:46:08.107Z,5.83
2019-02-02T17:49:04.255Z,4.25
2019-02-02T17:51:57.035Z,4.90
2019-02-02T17:54:50.865Z,4.12
2019-02-02T17:57:44.174Z,4.80
2019-02-02T18:00:44.144Z,4.30
2019-02-02T18:03:50.522Z,4.70
2019-02-02T18:06:44.842Z,5.85
2019-02-02T18:09:38.154Z,4.87
2019-02-02T18:12:31.981Z,5.62
2019-02-02T18:15:25.544Z,5.30
2019-02-02T18:18:19.125Z,4.42
2019-02-02T18:21:08.857Z,5.03
2019-02-02T18:24:02.162Z,3.17
2019-02-02T18:30:38.444Z,5.08
2019-02-02T18:33:32.268Z,5.83
2019-02-02T18:36:25.838Z,3.72
2019-02-02T18:39:19.914Z,5.72
2019-02-02T18:42:13.999Z,4.90
2019-02-02T18:45:07.565Z,5.25
2019-02-02T18:48:00.880Z,5.33
2019-02-02T18:50:55.208Z,4.78
2019-02-02T18:53:50.315Z,5.62
2019-02-02T18:56:44.660Z,5.75
2019-02-02T18:59:38.474Z,3.17
2019-02-02T19:02:33.587Z,5.05
2019-02-02T19:05:28.993Z,4.70
2019-02-02T19:08:21.227Z,6.12
2019-02-02T19:11:11.211Z,5.62
2019-02-02T19:14:06.825Z,4.03
2019-02-02T19:17:01.331Z,5.05
2019-02-02T19:19:53.963Z,4.10
2019-02-02T19:22:57.139Z,4.95
2019-02-02T19:25:55.743Z,4.33
2019-02-02T19:29:05.946Z,5.17
2019-02-02T19:32:05.396Z,4.78
2019-02-02T19:38:27.336Z,4.40
2019-02-02T19:44:49.540Z,3.92
2019-02-02T19:47:43.592Z,5.08
2019-02-02T19:50:38.458Z,5.28
2019-02-02T19:53:34.366Z,5.50
2019-02-02T19:56:27.116Z,3.90
2019-02-02T19:59:20.179Z,3.77
2019-02-02T20:02:13.498Z,6.12
2019-02-02T20:05:09.247Z,5.12
2019-02-02T20:07:59.592Z,6.20
2019-02-02T20:10:52.684Z,6.05
2019-02-02T20:13:41.866Z,5.90
2019-02-02T20:16:35.184Z,4.95
2019-02-02T20:19:28.744Z,4.78
2019-02-02T20:22:21.549Z,5.30
2019-02-02T20:25:10.798Z,4.30
2019-02-02T20:28:04.851Z,4.78
2019-02-02T20:30:58.154Z,5.33
2019-02-02T20:33:51.467Z,5.08
2019-02-02T20:36:44.531Z,5.95
2019-02-02T20:39:37.835Z,5.70
2019-02-02T20:42:31.147Z,4.00
2019-02-02T20:45:24.462Z,5.53
2019-02-02T20:48:18.538Z,5.65
2019-02-02T20:51:11.593Z,5.00
2019-02-02T20:54:04.659Z,5.08
2019-02-02T20:56:57.707Z,3.67
2019-02-02T20:59:50.762Z,5.92
2019-02-02T21:02:44.077Z,5.67
2019-02-02T21:05:37.895Z,3.58
2019-02-02T21:08:30.952Z,4.72
2019-02-02T21:11:23.757Z,5.00
2019-02-02T21:14:16.811Z,3.70
2019-02-02T21:17:09.612Z,4.58
2019-02-02T21:19:58.829Z,2.60
2019-02-02T21:22:51.880Z,4.42
2019-02-02T21:25:44.679Z,3.55
2019-02-02T21:28:37.480Z,5.40
2019-02-02T21:31:30.538Z,4.83
2019-02-02T21:34:19.759Z,4.22
2019-02-02T21:37:12.821Z,5.62
2019-02-02T21:40:06.635Z,4.72
2019-02-02T21:42:56.111Z,5.83
2019-02-02T21:45:50.185Z,3.87
2019-02-02T21:48:43.247Z,5.75
2019-02-02T21:51:36.297Z,5.95
2019-02-02T21:54:29.356Z,3.80
2019-02-02T21:57:20.873Z,3.90
2019-02-02T22:00:14.953Z,3.60
2019-02-02T22:03:08.012Z,5.08
2019-02-02T22:06:02.351Z,5.50
2019-02-02T22:08:55.149Z,4.35
2019-02-02T22:11:48.204Z,4.10
2019-02-02T22:14:41.257Z,4.45
2019-02-02T22:17:34.569Z,5.30
2019-02-02T22:20:24.881Z,3.15
2019-02-02T22:23:17.886Z,5.78
2019-02-02T22:26:18.601Z,3.85
2019-02-02T22:29:11.656Z,5.03
2019-02-02T22:32:04.712Z,4.45
2019-02-02T22:35:00.347Z,5.33
2019-02-02T22:37:53.385Z,4.12
2019-02-02T22:40:47.210Z,5.78
2019-02-02T22:43:40.529Z,2.83
2019-02-02T22:46:34.091Z,5.67
2019-02-02T22:49:23.306Z,3.42
2019-02-02T22:52:12.714Z,3.20
2019-02-02T22:55:05.832Z,3.75
2019-02-02T22:57:58.639Z,5.03
2019-02-02T23:01:09.870Z,4.67
2019-02-02T23:04:14.440Z,4.05
2019-02-02T23:07:19.018Z,4.87
2019-02-02T23:10:32.552Z,4.95
2019-02-02T23:13:42.764Z,5.17
2019-02-02T23:16:36.072Z,4.70
2019-02-02T23:19:28.873Z,4.40
2019-02-02T23:22:12.309Z,4.72
2019-02-02T23:25:05.258Z,5.50
2019-02-02T23:27:58.326Z,4.80
2019-02-02T23:30:51.369Z,4.42
2019-02-02T23:33:44.166Z,4.12
2019-02-02T23:36:36.971Z,5.25
2019-02-02T23:39:30.793Z,3.70
2019-02-02T23:42:19.753Z,2.77
2019-02-02T23:45:13.832Z,4.85
2019-02-02T23:48:06.648Z,4.25
2019-02-02T23:50:59.689Z,4.60
2019-02-02T23:53:48.903Z,3.62
2019-02-02T23:56:41.705Z,4.05
2019-02-02T23:59:35.356Z,3.65
